createdAt,value
2019-04-03T00:00:32.818Z,101613.76
2019-04-03T00:03:05.528Z,101613.45
2019-04-03T00:05:37.073Z,101610.78
2019-04-03T00:08:08.546Z,101609.03
2019-04-03T00:10:39.992Z,101615.61
2019-04-03T00:13:11.749Z,101609.04
2019-04-03T00:15:44.624Z,101606.89
2019-04-03T00:18:16.924Z,101603.41
2019-04-03T00:20:49.206Z,101601.28
2019-04-03T00:23:22.350Z,101607.33
2019-04-03T00:25:54.540Z,101602.91
2019-04-03T00:28:28.252Z,101596.86
2019-04-03T00:31:00.300Z,101597.77
2019-04-03T00:33:31.821Z,101606.20
2019-04-03T00:36:03.435Z,101605.25
2019-04-03T00:38:35.393Z,101599.69
2019-04-03T00:41:07.047Z,101607.00
2019-04-03T00:43:38.710Z,101599.09
2019-04-03T00:46:10.366Z,101593.01
2019-04-03T00:48:41.910Z,101598.07
2019-04-03T00:51:13.578Z,101593.86
2019-04-03T00:53:45.338Z,101591.30
2019-04-03T00:56:16.796Z,101591.73
2019-04-03T00:58:48.246Z,101585.66
2019-04-03T01:01:20.768Z,101590.72
2019-04-03T01:03:52.470Z,101589.59
2019-04-03T01:06:24.139Z,101595.33
2019-04-03T01:08:55.677Z,101598.21
2019-04-03T01:11:27.249Z,101600.67
2019-04-03T01:14:01.098Z,101597.79
2019-04-03T01:16:33.007Z,101598.83
2019-04-03T01:19:05.800Z,101594.72
2019-04-03T01:21:37.839Z,101600.56
2019-04-03T01:24:09.634Z,101595.74
2019-04-03T01:26:41.286Z,101592.66
2019-04-03T01:29:12.964Z,101611.18
2019-04-03T01:31:45.208Z,101598.43
2019-04-03T01:34:17.847Z,101609.32
2019-04-03T01:36:50.367Z,101603.66
2019-04-03T01:39:22.043Z,101606.87
2019-04-03T01:41:53.702Z,101603.88
2019-04-03T01:44:25.374Z,101605.14
2019-04-03T01:46:57.700Z,101603.38
2019-04-03T01:49:29.661Z,101605.74
2019-04-03T01:52:01.499Z,101602.26
2019-04-03T01:54:33.794Z,101604.13
2019-04-03T01:57:06.438Z,101608.02
2019-04-03T01:59:38.490Z,101601.13
2019-04-03T02:02:10.138Z,101599.48
2019-04-03T02:04:42.702Z,101595.38
2019-04-03T02:07:15.128Z,101596.00
2019-04-03T02:09:47.223Z,101589.64
2019-04-03T02:12:19.740Z,101592.63
2019-04-03T02:14:51.907Z,101592.61
2019-04-03T02:17:24.175Z,101591.17
2019-04-03T02:19:56.332Z,101592.08
2019-04-03T02:22:29.592Z,101594.45
2019-04-03T02:25:02.188Z,101593.09
2019-04-03T02:27:34.388Z,101594.94
2019-04-03T02:30:07.287Z,101598.22
2019-04-03T02:32:38.742Z,101593.37
2019-04-03T02:35:10.504Z,101599.65
2019-04-03T02:37:41.961Z,101595.94
2019-04-03T02:40:14.215Z,101603.44
2019-04-03T02:42:45.625Z,101596.77
2019-04-03T02:45:17.652Z,101599.13
2019-04-03T02:47:49.189Z,101597.06
2019-04-03T02:50:25.550Z,101590.11
2019-04-03T02:52:58.936Z,101598.31
2019-04-03T02:55:30.310Z,101598.58
2019-04-03T02:58:02.276Z,101597.34
2019-04-03T03:00:34.124Z,101597.14
2019-04-03T03:03:05.796Z,101597.34
2019-04-03T03:05:37.703Z,101601.12
2019-04-03T03:08:09.975Z,101603.76
2019-04-03T03:10:41.686Z,101603.84
2019-04-03T03:13:13.741Z,101610.71
2019-04-03T03:15:45.592Z,101604.94
2019-04-03T03:18:16.962Z,101609.34
2019-04-03T03:20:48.917Z,101602.08
2019-04-03T03:23:23.376Z,101602.97
2019-04-03T03:25:53.564Z,101605.52
2019-04-03T03:28:25.219Z,101602.97
2019-04-03T03:31:03.691Z,101604.42
2019-04-03T03:33:36.198Z,101602.37
2019-04-03T03:36:05.414Z,101600.86
2019-04-03T03:38:39.421Z,101605.35
2019-04-03T03:41:10.488Z,101604.94
2019-04-03T03:43:42.148Z,101612.66
2019-04-03T03:46:13.905Z,101606.36
2019-04-03T03:48:45.813Z,101606.36
2019-04-03T03:51:17.916Z,101611.20
2019-04-03T03:53:49.804Z,101612.42
2019-04-03T03:56:21.539Z,101611.78
2019-04-03T03:58:54.342Z,101612.50
2019-04-03T04:01:30.189Z,101612.62
2019-04-03T04:03:59.474Z,101620.33
2019-04-03T04:06:35.049Z,101624.48
2019-04-03T04:09:06.020Z,101618.38
2019-04-03T04:11:37.787Z,101622.23
2019-04-03T04:14:09.396Z,101621.53
2019-04-03T04:16:41.261Z,101620.63
2019-04-03T04:19:12.724Z,101622.91
2019-04-03T04:21:45.216Z,101623.93
2019-04-03T04:24:17.735Z,101620.00
2019-04-03T04:26:50.639Z,101619.69
2019-04-03T04:29:22.106Z,101620.53
2019-04-03T04:31:53.982Z,101613.92
2019-04-03T04:34:25.721Z,101621.00
2019-04-03T04:36:57.769Z,101617.38
2019-04-03T04:39:29.846Z,101618.48
2019-04-03T04:42:03.371Z,101619.59
2019-04-03T04:44:35.540Z,101619.45
2019-04-03T04:47:07.275Z,101624.35
2019-04-03T04:49:38.889Z,101621.88
2019-04-03T04:52:10.717Z,101627.20
2019-04-03T04:54:43.033Z,101619.64
2019-04-03T04:57:14.641Z,101621.88
2019-04-03T04:59:46.530Z,101619.27
2019-04-03T05:02:19.869Z,101617.06
2019-04-03T05:04:51.875Z,101608.78
2019-04-03T05:07:23.738Z,101605.05
2019-04-03T05:09:55.390Z,101613.72
2019-04-03T05:12:26.825Z,101615.10
2019-04-03T05:14:58.772Z,101608.95
2019-04-03T05:17:30.462Z,101609.00
2019-04-03T05:20:02.429Z,101606.05
2019-04-03T05:22:34.249Z,101603.40
2019-04-03T05:25:05.823Z,101608.45
2019-04-03T05:27:37.597Z,101612.14
2019-04-03T05:30:10.034Z,101611.33
2019-04-03T05:32:42.531Z,101613.33
2019-04-03T05:35:14.940Z,101614.08
2019-04-03T05:37:47.201Z,101607.69
2019-04-03T05:40:19.041Z,101617.53
2019-04-03T05:42:50.915Z,101608.81
2019-04-03T05:45:22.297Z,101614.56
2019-04-03T05:47:54.294Z,101608.59
2019-04-03T05:50:26.351Z,101611.80
2019-04-03T05:52:58.573Z,101605.09
2019-04-03T05:55:29.879Z,101603.61
2019-04-03T05:58:01.274Z,101604.98
2019-04-03T06:00:38.046Z,101600.42
2019-04-03T06:03:09.402Z,101609.80
2019-04-03T06:05:41.843Z,101606.94
2019-04-03T06:08:14.563Z,101609.50
2019-04-03T06:10:46.258Z,101609.78
2019-04-03T06:13:17.868Z,101614.89
2019-04-03T06:15:49.351Z,101613.09
2019-04-03T06:18:22.572Z,101610.70
2019-04-03T06:20:55.507Z,101609.03
2019-04-03T06:23:27.050Z,101612.72
2019-04-03T06:26:00.798Z,101607.17
2019-04-03T06:28:31.711Z,101614.08
2019-04-03T06:31:03.681Z,101607.02
2019-04-03T06:33:36.593Z,101605.50
2019-04-03T06:36:08.220Z,101609.56
2019-04-03T06:38:39.862Z,101608.22
2019-04-03T06:41:11.122Z,101610.89
2019-04-03T06:43:42.985Z,101613.78
2019-04-03T06:46:14.769Z,101604.79
2019-04-03T06:48:46.206Z,101603.88
2019-04-03T06:51:17.960Z,101599.42
2019-04-03T06:53:49.620Z,101611.91
2019-04-03T06:56:21.425Z,101606.53
2019-04-03T06:58:52.936Z,101605.65
2019-04-03T07:01:24.600Z,101608.53
2019-04-03T07:03:56.357Z,101609.50
2019-04-03T07:06:27.794Z,101598.59
2019-04-03T07:08:59.473Z,101596.61
2019-04-03T07:11:31.230Z,101599.77
2019-04-03T07:14:02.972Z,101609.79
2019-04-03T07:16:37.684Z,101596.23
2019-04-03T07:19:08.675Z,101605.95
2019-04-03T07:21:41.441Z,101602.56
2019-04-03T07:24:13.364Z,101597.03
2019-04-03T07:26:44.996Z,101594.73
2019-04-03T07:29:17.402Z,101593.98
2019-04-03T07:31:49.238Z,101584.36
2019-04-03T07:34:20.880Z,101591.30
2019-04-03T07:36:52.615Z,101599.84
2019-04-03T07:39:24.150Z,101580.31
2019-04-03T07:41:55.625Z,101584.70
2019-04-03T07:44:27.707Z,101585.31
2019-04-03T07:47:00.054Z,101588.70
2019-04-03T07:49:31.423Z,101578.05
2019-04-03T07:52:03.055Z,101573.45
2019-04-03T07:54:34.729Z,101585.80
2019-04-03T07:57:09.567Z,101592.27
2019-04-03T07:59:39.359Z,101591.19
2019-04-03T08:02:12.819Z,101568.11
2019-04-03T08:04:44.115Z,101574.69
2019-04-03T08:07:15.567Z,101562.69
2019-04-03T08:09:47.240Z,101563.49
2019-04-03T08:12:18.798Z,101553.59
2019-04-03T08:14:50.131Z,101567.78
2019-04-03T08:17:23.321Z,101551.30
2019-04-03T08:19:55.279Z,101565.42
2019-04-03T08:22:27.040Z,101569.70
2019-04-03T08:24:58.653Z,101552.17
2019-04-03T08:27:30.059Z,101555.13
2019-04-03T08:30:01.431Z,101560.58
2019-04-03T08:32:34.094Z,101553.05
2019-04-03T08:35:19.467Z,101549.84
2019-04-03T08:37:41.674Z,101552.00
2019-04-03T08:40:12.257Z,101552.97
2019-04-03T08:42:43.716Z,101548.81
2019-04-03T08:45:15.475Z,101548.27
2019-04-03T08:47:47.132Z,101542.71
2019-04-03T08:50:18.826Z,101536.07
2019-04-03T08:52:50.324Z,101534.02
2019-04-03T08:55:22.043Z,101542.56
2019-04-03T08:57:53.555Z,101546.31
2019-04-03T09:00:24.890Z,101531.97
2019-04-03T09:02:56.161Z,101523.65
2019-04-03T09:05:27.919Z,101525.65
2019-04-03T09:07:59.354Z,101529.05
2019-04-03T09:10:32.692Z,101524.29
2019-04-03T09:13:16.096Z,101511.63
2019-04-03T09:15:37.000Z,101523.78
2019-04-03T09:18:08.654Z,101534.30
2019-04-03T09:20:42.745Z,101520.48
2019-04-03T09:23:13.598Z,101527.84
2019-04-03T09:25:46.095Z,101526.74
2019-04-03T09:28:17.422Z,101523.53
2019-04-03T09:30:49.007Z,101520.28
2019-04-03T09:33:24.959Z,101514.59
2019-04-03T09:35:54.446Z,101527.27
2019-04-03T09:38:26.006Z,101530.39
2019-04-03T09:40:57.679Z,101514.17
2019-04-03T09:43:29.198Z,101520.64
2019-04-03T09:46:00.895Z,101537.10
2019-04-03T09:48:34.873Z,101519.65
2019-04-03T09:51:09.037Z,101512.45
2019-04-03T09:53:39.554Z,101518.73
2019-04-03T09:56:11.115Z,101516.33
2019-04-03T09:58:43.009Z,101522.01
2019-04-03T10:01:17.718Z,101517.09
2019-04-03T10:03:47.608Z,101504.06
2019-04-03T10:06:19.260Z,101517.38
2019-04-03T10:08:50.724Z,101507.91
2019-04-03T10:11:22.794Z,101513.38
2019-04-03T10:13:56.546Z,101514.66
2019-04-03T10:16:27.744Z,101507.51
2019-04-03T10:18:59.315Z,101492.05
2019-04-03T10:21:33.360Z,101497.78
2019-04-03T10:24:13.867Z,101484.81
2019-04-03T10:26:45.540Z,101490.57
2019-04-03T10:29:19.083Z,101494.37
2019-04-03T10:31:50.187Z,101488.43
2019-04-03T10:34:22.053Z,101490.02
2019-04-03T10:36:53.816Z,101491.04
2019-04-03T10:39:25.555Z,101488.25
2019-04-03T10:41:58.113Z,101489.83
2019-04-03T10:44:30.127Z,101495.52
2019-04-03T10:47:02.339Z,101486.39
2019-04-03T10:49:33.819Z,101480.46
2019-04-03T10:52:05.296Z,101478.11
2019-04-03T10:54:38.142Z,101478.68
2019-04-03T10:57:10.150Z,101481.16
2019-04-03T10:59:41.794Z,101474.63
2019-04-03T11:02:14.128Z,101490.33
2019-04-03T11:04:45.724Z,101476.71
2019-04-03T11:07:17.093Z,101464.37
2019-04-03T11:09:48.745Z,101463.54
2019-04-03T11:12:20.224Z,101449.80
2019-04-03T11:15:01.643Z,101448.55
2019-04-03T11:17:34.163Z,101451.58
2019-04-03T11:20:09.710Z,101464.34
2019-04-03T11:22:42.775Z,101464.33
2019-04-03T11:25:15.371Z,101445.59
2019-04-03T11:27:46.615Z,101442.10
2019-04-03T11:30:23.523Z,101440.80
2019-04-03T11:32:51.554Z,101434.86
2019-04-03T11:35:23.121Z,101440.28
2019-04-03T11:37:55.100Z,101433.24
2019-04-03T11:40:28.192Z,101433.51
2019-04-03T11:42:59.962Z,101428.36
2019-04-03T11:45:31.711Z,101429.23
2019-04-03T11:48:03.713Z,101404.30
2019-04-03T11:50:35.708Z,101426.50
2019-04-03T11:53:07.785Z,101422.42
2019-04-03T11:55:39.968Z,101409.70
2019-04-03T11:58:12.613Z,101416.77
2019-04-03T12:00:45.738Z,101417.59
2019-04-03T12:03:17.677Z,101404.84
2019-04-03T12:05:49.373Z,101396.98
2019-04-03T12:08:20.834Z,101395.84
2019-04-03T12:10:52.960Z,101403.14
2019-04-03T12:13:24.409Z,101400.42
2019-04-03T12:15:58.231Z,101399.86
2019-04-03T12:18:29.502Z,101396.91
2019-04-03T12:21:03.061Z,101390.43
2019-04-03T12:23:34.712Z,101406.75
2019-04-03T12:26:06.236Z,101396.68
2019-04-03T12:28:37.793Z,101383.13
2019-04-03T12:31:09.502Z,101381.73
2019-04-03T12:33:52.393Z,101371.87
2019-04-03T12:36:15.918Z,101384.23
2019-04-03T12:38:47.284Z,101384.08
2019-04-03T12:41:18.927Z,101392.88
2019-04-03T12:43:50.802Z,101394.75
2019-04-03T12:46:25.230Z,101388.75
2019-04-03T12:48:56.779Z,101381.85
2019-04-03T12:51:29.377Z,101385.73
2019-04-03T12:54:01.794Z,101394.20
2019-04-03T12:56:33.831Z,101396.12
2019-04-03T12:59:08.700Z,101387.95
2019-04-03T13:01:40.502Z,101386.03
2019-04-03T13:04:12.224Z,101388.78
2019-04-03T13:06:44.508Z,101393.69
2019-04-03T13:09:16.197Z,101386.13
2019-04-03T13:11:49.732Z,101388.86
2019-04-03T13:14:25.230Z,101392.39
2019-04-03T13:16:54.112Z,101388.34
2019-04-03T13:19:25.998Z,101387.48
2019-04-03T13:21:57.637Z,101399.39
2019-04-03T13:24:29.379Z,101399.35
2019-04-03T13:27:01.216Z,101396.68
2019-04-03T13:29:32.870Z,101397.80
2019-04-03T13:32:04.476Z,101407.29
2019-04-03T13:34:36.261Z,101398.08
2019-04-03T13:37:07.814Z,101401.58
2019-04-03T13:39:39.774Z,101406.75
2019-04-03T13:42:13.913Z,101403.22
2019-04-03T13:44:44.521Z,101402.13
2019-04-03T13:47:16.063Z,101402.66
2019-04-03T13:49:50.115Z,101397.23
2019-04-03T13:52:21.159Z,101398.59
2019-04-03T13:54:53.284Z,101398.31
2019-04-03T13:57:24.780Z,101390.73
2019-04-03T14:00:01.090Z,101393.97
2019-04-03T14:02:30.344Z,101391.27
2019-04-03T14:05:01.872Z,101391.26
2019-04-03T14:07:34.234Z,101392.89
2019-04-03T14:10:10.107Z,101392.34
2019-04-03T14:12:44.554Z,101395.84
2019-04-03T14:15:15.579Z,101399.34
2019-04-03T14:17:55.221Z,101404.21
2019-04-03T14:20:23.266Z,101397.20
2019-04-03T14:22:54.299Z,101402.68
2019-04-03T14:25:31.357Z,101402.69
2019-04-03T14:28:02.813Z,101399.72
2019-04-03T14:30:34.238Z,101397.77
2019-04-03T14:33:06.483Z,101399.39
2019-04-03T14:35:49.386Z,101401.02
2019-04-03T14:38:12.991Z,101399.94
2019-04-03T14:40:45.057Z,101407.77
2019-04-03T14:43:16.695Z,101407.24
2019-04-03T14:45:48.424Z,101402.05
2019-04-03T14:48:19.908Z,101402.04
2019-04-03T14:50:51.964Z,101403.11
2019-04-03T14:53:24.640Z,101406.93
2019-04-03T14:55:56.343Z,101407.24
2019-04-03T14:58:28.197Z,101416.98
2019-04-03T15:00:59.853Z,101418.08
2019-04-03T15:03:33.617Z,101411.31
2019-04-03T15:06:04.715Z,101409.16
2019-04-03T15:08:36.955Z,101416.70
2019-04-03T15:11:08.812Z,101410.76
2019-04-03T15:13:40.935Z,101413.18
2019-04-03T15:16:13.105Z,101409.60
2019-04-03T15:18:44.783Z,101412.25
2019-04-03T15:21:16.579Z,101412.72
2019-04-03T15:23:48.590Z,101412.72
2019-04-03T15:26:22.238Z,101405.11
2019-04-03T15:28:53.290Z,101411.03
2019-04-03T15:31:25.895Z,101405.83
2019-04-03T15:33:57.667Z,101411.73
2019-04-03T15:36:29.483Z,101410.63
2019-04-03T15:39:00.955Z,101414.31
2019-04-03T15:41:34.906Z,101415.33
2019-04-03T15:44:06.527Z,101415.05
2019-04-03T15:46:38.313Z,101414.80
2019-04-03T15:49:09.675Z,101413.45
2019-04-03T15:51:41.813Z,101424.46
2019-04-03T15:54:13.536Z,101419.54
2019-04-03T15:56:46.029Z,101417.97
2019-04-03T15:59:17.991Z,101420.91
2019-04-03T16:01:49.346Z,101431.38
2019-04-03T16:04:21.968Z,101429.44
2019-04-03T16:06:53.581Z,101433.77
2019-04-03T16:09:25.665Z,101430.27
2019-04-03T16:12:00.089Z,101435.62
2019-04-03T16:14:30.951Z,101436.23
2019-04-03T16:17:02.999Z,101441.09
2019-04-03T16:19:34.519Z,101440.87
2019-04-03T16:22:06.123Z,101444.34
2019-04-03T16:24:38.145Z,101446.67
2019-04-03T16:27:09.806Z,101450.77
2019-04-03T16:29:41.900Z,101445.77
2019-04-03T16:32:13.812Z,101452.20
2019-04-03T16:34:45.397Z,101452.20
2019-04-03T16:37:20.481Z,101459.27
2019-04-03T16:39:50.406Z,101463.27
2019-04-03T16:42:22.616Z,101471.09
2019-04-03T16:44:54.617Z,101484.00
2019-04-03T16:47:27.603Z,101484.00
2019-04-03T16:50:00.348Z,101482.31
2019-04-03T16:52:32.388Z,101488.06
2019-04-03T16:55:04.787Z,101492.31
2019-04-03T16:57:36.356Z,101492.20
2019-04-03T17:00:09.562Z,101492.00
2019-04-03T17:02:41.464Z,101493.94
2019-04-03T17:05:12.941Z,101499.06
2019-04-03T17:07:45.090Z,101500.19
2019-04-03T17:10:16.746Z,101499.77
2019-04-03T17:12:50.500Z,101501.62
2019-04-03T17:15:22.313Z,101502.73
2019-04-03T17:17:53.911Z,101504.27
2019-04-03T17:20:26.489Z,101506.95
2019-04-03T17:22:59.469Z,101499.62
2019-04-03T17:25:43.908Z,101504.13
2019-04-03T17:28:08.635Z,101506.22
2019-04-03T17:30:37.729Z,101515.50
2019-04-03T17:33:09.490Z,101513.81
2019-04-03T17:35:47.317Z,101517.53
2019-04-03T17:38:18.302Z,101520.23
2019-04-03T17:40:52.852Z,101518.58
2019-04-03T17:43:24.716Z,101514.50
2019-04-03T17:45:56.606Z,101522.20
2019-04-03T17:48:28.214Z,101514.91
2019-04-03T17:51:02.528Z,101518.31
2019-04-03T17:53:34.840Z,101512.63
2019-04-03T17:56:07.712Z,101514.46
2019-04-03T17:58:39.557Z,101509.91
2019-04-03T18:01:11.541Z,101513.16
2019-04-03T18:03:43.072Z,101515.08
2019-04-03T18:06:14.857Z,101513.78
2019-04-03T18:08:46.597Z,101512.80
2019-04-03T18:11:18.474Z,101513.12
2019-04-03T18:13:49.938Z,101508.05
2019-04-03T18:16:21.698Z,101511.89
2019-04-03T18:18:53.227Z,101510.49
2019-04-03T18:21:24.902Z,101512.39
2019-04-03T18:23:56.354Z,101509.75
2019-04-03T18:26:30.450Z,101505.18
2019-04-03T18:29:01.319Z,101500.58
2019-04-03T18:31:32.867Z,101501.97
2019-04-03T18:34:04.418Z,101508.05
2019-04-03T18:36:36.367Z,101508.91
2019-04-03T18:39:11.940Z,101509.45
2019-04-03T18:41:43.623Z,101511.73
2019-04-03T18:44:22.041Z,101517.41
2019-04-03T18:46:50.277Z,101507.27
2019-04-03T18:49:21.847Z,101509.93
2019-04-03T18:51:53.696Z,101501.33
2019-04-03T18:54:25.322Z,101506.03
2019-04-03T18:56:57.211Z,101509.44
2019-04-03T18:59:28.987Z,101514.89
2019-04-03T19:02:03.549Z,101519.19
2019-04-03T19:04:37.433Z,101514.27
2019-04-03T19:07:07.645Z,101511.70
2019-04-03T19:09:40.938Z,101515.81
2019-04-03T19:12:13.665Z,101512.97
2019-04-03T19:14:45.920Z,101515.43
2019-04-03T19:17:17.634Z,101516.23
2019-04-03T19:19:49.491Z,101520.27
2019-04-03T19:22:21.379Z,101518.92
2019-04-03T19:24:52.831Z,101517.38
2019-04-03T19:27:24.919Z,101517.26
2019-04-03T19:29:56.854Z,101514.50
2019-04-03T19:32:29.802Z,101519.50
2019-04-03T19:35:11.243Z,101520.81
2019-04-03T19:37:45.015Z,101519.67
2019-04-03T19:40:15.966Z,101522.31
2019-04-03T19:42:49.003Z,101519.83
2019-04-03T19:45:21.531Z,101522.68
2019-04-03T19:47:55.019Z,101519.17
2019-04-03T19:50:26.597Z,101515.98
2019-04-03T19:52:58.152Z,101514.42
2019-04-03T19:55:30.511Z,101519.23
2019-04-03T19:58:03.764Z,101522.80
2019-04-03T20:00:35.541Z,101521.42
2019-04-03T20:03:08.021Z,101522.43
2019-04-03T20:05:39.842Z,101509.48
2019-04-03T20:08:12.296Z,101511.10
2019-04-03T20:10:44.067Z,101512.52
2019-04-03T20:13:15.742Z,101514.77
2019-04-03T20:15:47.667Z,101509.31
2019-04-03T20:18:19.514Z,101511.78
2019-04-03T20:20:51.226Z,101509.44
2019-04-03T20:23:29.960Z,101508.48
2019-04-03T20:25:58.499Z,101513.11
2019-04-03T20:28:30.101Z,101518.75
2019-04-03T20:31:01.998Z,101520.38
2019-04-03T20:33:33.592Z,101522.80
2019-04-03T20:36:05.432Z,101526.91
2019-04-03T20:38:36.884Z,101525.42
2019-04-03T20:41:08.432Z,101531.19
2019-04-03T20:43:42.695Z,101533.73
2019-04-03T20:46:13.497Z,101530.75
2019-04-03T20:48:46.070Z,101522.43
2019-04-03T20:51:18.625Z,101529.98
2019-04-03T20:53:50.860Z,101531.31
2019-04-03T20:56:22.583Z,101530.17
2019-04-03T20:58:56.463Z,101528.33
2019-04-03T21:01:27.934Z,101526.88
2019-04-03T21:03:59.681Z,101527.80
2019-04-03T21:06:32.785Z,101526.62
2019-04-03T21:09:06.392Z,101523.59
2019-04-03T21:11:39.583Z,101525.20
2019-04-03T21:14:11.787Z,101523.13
2019-04-03T21:16:43.463Z,101522.69
2019-04-03T21:19:15.394Z,101522.89
2019-04-03T21:21:46.924Z,101521.44
2019-04-03T21:24:18.665Z,101517.32
2019-04-03T21:26:50.541Z,101516.91
2019-04-03T21:29:22.210Z,101522.50
2019-04-03T21:31:56.410Z,101516.41
2019-04-03T21:34:27.127Z,101518.52
2019-04-03T21:36:58.810Z,101520.73
2019-04-03T21:39:30.472Z,101519.80
2019-04-03T21:42:01.874Z,101516.20
2019-04-03T21:44:33.759Z,101511.08
2019-04-03T21:47:05.933Z,101513.73
2019-04-03T21:49:37.401Z,101519.98
2019-04-03T21:52:09.059Z,101525.83
2019-04-03T21:54:41.637Z,101526.64
2019-04-03T21:57:13.271Z,101517.84
2019-04-03T21:59:44.952Z,101516.00
2019-04-03T22:02:16.736Z,101510.16
2019-04-03T22:04:48.476Z,101517.45
2019-04-03T22:07:20.234Z,101514.92
2019-04-03T22:09:52.293Z,101511.36
2019-04-03T22:12:24.057Z,101506.67
2019-04-03T22:14:55.800Z,101512.81
2019-04-03T22:17:27.682Z,101506.80
2019-04-03T22:19:59.355Z,101510.27
2019-04-03T22:22:31.939Z,101507.48
2019-04-03T22:25:04.629Z,101504.50
2019-04-03T22:27:36.354Z,101508.42
2019-04-03T22:30:07.991Z,101508.06
2019-04-03T22:32:39.870Z,101504.07
2019-04-03T22:35:11.536Z,101507.41
2019-04-03T22:37:43.393Z,101504.63
2019-04-03T22:40:15.130Z,101509.02
2019-04-03T22:42:46.601Z,101505.55
2019-04-03T22:45:20.079Z,101508.27
2019-04-03T22:47:51.352Z,101507.30
2019-04-03T22:50:22.691Z,101507.50
2019-04-03T22:52:54.563Z,101503.58
2019-04-03T22:55:26.328Z,101502.64
2019-04-03T22:57:57.833Z,101501.58
2019-04-03T23:00:29.744Z,101501.78
2019-04-03T23:03:02.934Z,101495.39
2019-04-03T23:05:34.599Z,101495.59
2019-04-03T23:08:06.344Z,101496.14
2019-04-03T23:10:38.202Z,101489.69
2019-04-03T23:13:09.877Z,101490.89
2019-04-03T23:15:41.747Z,101487.62
2019-04-03T23:18:13.967Z,101491.09
2019-04-03T23:20:46.691Z,101487.62
2019-04-03T23:23:18.548Z,101488.49
2019-04-03T23:25:50.220Z,101486.41
2019-04-03T23:28:22.085Z,101485.16
2019-04-03T23:30:53.738Z,101487.55
2019-04-03T23:33:25.912Z,101478.51
2019-04-03T23:35:57.361Z,101477.89
2019-04-03T23:38:29.631Z,101479.08
2019-04-03T23:41:01.068Z,101479.02
2019-04-03T23:43:32.588Z,101477.42
2019-04-03T23:46:04.396Z,101482.66
2019-04-03T23:48:35.852Z,101479.77
2019-04-03T23:51:07.498Z,101480.50
2019-04-03T23:53:39.268Z,101473.44
2019-04-03T23:56:11.129Z,101467.14
2019-04-03T23:58:42.884Z,101474.30
